createdAt,value
2019-03-26T00:01:58.076Z,20.38
2019-03-26T00:04:05.480Z,20.35
2019-03-26T00:06:09.368Z,20.33
2019-03-26T00:08:11.448Z,20.34
2019-03-26T00:10:15.631Z,20.29
2019-03-26T00:12:17.910Z,20.42
2019-03-26T00:14:20.072Z,20.48
2019-03-26T00:16:22.135Z,20.44
2019-03-26T00:18:25.636Z,20.4
2019-03-26T00:20:27.794Z,20.5
2019-03-26T00:22:29.957Z,20.42
2019-03-26T00:24:32.020Z,20.34
2019-03-26T00:26:34.081Z,20.33
2019-03-26T00:28:37.377Z,20.29
2019-03-26T00:30:39.640Z,20.29
2019-03-26T00:32:41.622Z,20.42
2019-03-26T00:34:43.664Z,20.26
2019-03-26T00:36:45.926Z,20.36
2019-03-26T00:38:48.136Z,20.33
2019-03-26T00:40:51.481Z,20.37
2019-03-26T00:42:55.489Z,20.36
2019-03-26T00:44:59.747Z,20.44
2019-03-26T00:47:02.880Z,20.35
2019-03-26T00:49:04.951Z,20.41
2019-03-26T00:51:07.123Z,20.36
2019-03-26T00:53:09.283Z,20.33
2019-03-26T00:55:21.892Z,20.36
2019-03-26T00:57:24.976Z,20.4
2019-03-26T00:59:27.244Z,20.45
2019-03-26T01:01:29.404Z,20.29
2019-03-26T01:03:31.692Z,20.23
2019-03-26T01:05:33.835Z,20.24
2019-03-26T01:07:37.944Z,20.22
2019-03-26T01:09:40.083Z,20.2
2019-03-26T01:11:42.119Z,20.27
2019-03-26T01:13:45.554Z,20.18
2019-03-26T01:15:47.829Z,20.24
2019-03-26T01:17:50.115Z,20.22
2019-03-26T01:19:55.139Z,20.19
2019-03-26T01:21:57.291Z,20.28
2019-03-26T01:24:02.328Z,20.21
2019-03-26T01:26:04.487Z,20.13
2019-03-26T01:28:06.752Z,20.22
2019-03-26T01:30:08.814Z,20.27
2019-03-26T01:32:11.081Z,20.29
2019-03-26T01:34:16.028Z,20.25
2019-03-26T01:36:18.072Z,20.25
2019-03-26T01:38:20.133Z,20.24
2019-03-26T01:40:22.297Z,20.16
2019-03-26T01:42:24.562Z,20.24
2019-03-26T01:44:26.627Z,20.24
2019-03-26T01:46:30.530Z,20.26
2019-03-26T01:48:32.797Z,20.25
2019-03-26T01:50:34.967Z,20.23
2019-03-26T01:52:37.227Z,20.2
2019-03-26T01:54:40.416Z,20.23
2019-03-26T01:56:42.579Z,20.19
2019-03-26T01:58:44.845Z,20.16
2019-03-26T02:00:47.009Z,20.27
2019-03-26T02:02:49.071Z,20.22
2019-03-26T02:04:59.584Z,20.27
2019-03-26T02:07:02.104Z,20.25
2019-03-26T02:09:04.268Z,20.32
2019-03-26T02:11:06.339Z,20.27
2019-03-26T02:13:08.596Z,20.38
2019-03-26T02:15:10.862Z,20.21
2019-03-26T02:17:13.026Z,20.27
2019-03-26T02:19:15.395Z,20.32
2019-03-26T02:21:19.505Z,20.24
2019-03-26T02:23:21.774Z,20.2
2019-03-26T02:25:23.832Z,20.22
2019-03-26T02:27:26.202Z,20.19
2019-03-26T02:29:28.366Z,20.18
2019-03-26T02:31:30.434Z,20.31
2019-03-26T02:33:33.617Z,20.29
2019-03-26T02:35:35.802Z,20.21
2019-03-26T02:37:38.048Z,20.19
2019-03-26T02:39:41.235Z,20.25
2019-03-26T02:41:43.409Z,20.22
2019-03-26T02:43:45.667Z,20.16
2019-03-26T02:45:47.834Z,20.19
2019-03-26T02:47:50.095Z,20.15
2019-03-26T02:49:52.264Z,20.21
2019-03-26T02:51:54.553Z,20.17
2019-03-26T02:53:56.794Z,20.28
2019-03-26T02:55:58.958Z,20.14
2019-03-26T02:58:01.224Z,20.23
2019-03-26T03:00:03.392Z,20.16
2019-03-26T03:02:05.451Z,20.15
2019-03-26T03:04:07.510Z,20.1
2019-03-26T03:06:09.572Z,20.09
2019-03-26T03:08:11.636Z,20.2
2019-03-26T03:10:13.802Z,20.18
2019-03-26T03:12:17.393Z,20.09
2019-03-26T03:14:19.566Z,20.11
2019-03-26T03:16:21.824Z,20.05
2019-03-26T03:18:23.989Z,20.12
2019-03-26T03:20:26.288Z,20.14
2019-03-26T03:22:28.524Z,20.12
2019-03-26T03:24:30.775Z,20.22
2019-03-26T03:26:32.851Z,20.11
2019-03-26T03:28:34.912Z,20.11
2019-03-26T03:30:38.273Z,20.07
2019-03-26T03:32:42.143Z,20.2
2019-03-26T03:34:45.506Z,20.03
2019-03-26T03:36:47.648Z,20.16
2019-03-26T03:38:49.776Z,20.14
2019-03-26T03:40:53.026Z,20.04
2019-03-26T03:42:55.080Z,20.11
2019-03-26T03:44:57.142Z,20.1
2019-03-26T03:47:00.584Z,20.08
2019-03-26T03:49:02.766Z,20.14
2019-03-26T03:51:05.068Z,20.13
2019-03-26T03:53:08.571Z,20.12
2019-03-26T03:55:11.989Z,20.07
2019-03-26T03:57:14.166Z,20.05
2019-03-26T03:59:16.386Z,20.04
2019-03-26T04:01:19.803Z,20.05
2019-03-26T04:03:21.840Z,20.1
2019-03-26T04:05:25.164Z,20.05
2019-03-26T04:07:28.584Z,20.28
2019-03-26T04:09:31.814Z,20.15
2019-03-26T04:11:35.026Z,20.1
2019-03-26T04:13:38.396Z,20.17
2019-03-26T04:15:40.455Z,20.12
2019-03-26T04:17:42.723Z,20.22
2019-03-26T04:19:44.786Z,20.19
2019-03-26T04:21:48.791Z,20.12
2019-03-26T04:23:51.263Z,20.19
2019-03-26T04:25:55.168Z,20.14
2019-03-26T04:27:58.662Z,20.25
2019-03-26T04:30:00.931Z,20.25
2019-03-26T04:32:03.095Z,20.2
2019-03-26T04:34:05.358Z,20.18
2019-03-26T04:36:24.080Z,20.21
2019-03-26T04:38:28.883Z,20.2
2019-03-26T04:40:31.000Z,20.18
2019-03-26T04:42:33.368Z,20.15
2019-03-26T04:44:35.431Z,20.21
2019-03-26T04:46:39.064Z,20.19
2019-03-26T04:48:42.325Z,20.2
2019-03-26T04:50:44.381Z,20.17
2019-03-26T04:52:46.547Z,20.26
2019-03-26T04:54:50.450Z,20.26
2019-03-26T04:56:53.590Z,20.25
2019-03-26T04:58:56.826Z,20.35
2019-03-26T05:00:58.887Z,20.28
2019-03-26T05:03:01.052Z,20.29
2019-03-26T05:05:04.569Z,20.21
2019-03-26T05:07:06.812Z,20.22
2019-03-26T05:09:10.191Z,20.24
2019-03-26T05:11:12.371Z,20.24
2019-03-26T05:13:14.533Z,20.29
2019-03-26T05:15:17.995Z,20.27
2019-03-26T05:17:20.200Z,20.28
2019-03-26T05:19:22.460Z,20.25
2019-03-26T05:21:24.525Z,20.45
2019-03-26T05:23:26.892Z,20.37
2019-03-26T05:25:29.159Z,20.32
2019-03-26T05:27:44.455Z,20.39
2019-03-26T05:29:49.959Z,20.38
2019-03-26T05:31:52.033Z,20.33
2019-03-26T05:33:56.230Z,20.31
2019-03-26T05:35:58.409Z,20.38
2019-03-26T05:38:01.889Z,20.36
2019-03-26T05:40:04.277Z,20.47
2019-03-26T05:42:06.324Z,20.5
2019-03-26T05:44:09.530Z,20.62
2019-03-26T05:46:13.011Z,20.53
2019-03-26T05:48:17.940Z,20.7
2019-03-26T05:50:21.239Z,20.57
2019-03-26T05:52:24.655Z,20.62
2019-03-26T05:54:26.693Z,20.59
2019-03-26T05:56:30.544Z,20.62
2019-03-26T05:58:33.068Z,20.69
2019-03-26T06:00:35.335Z,20.83
2019-03-26T06:02:37.499Z,20.79
2019-03-26T06:04:39.663Z,20.87
2019-03-26T06:06:43.570Z,20.85
2019-03-26T06:08:45.732Z,20.81
2019-03-26T06:10:47.793Z,20.78
2019-03-26T06:12:51.358Z,20.75
2019-03-26T06:14:54.580Z,20.83
2019-03-26T06:16:56.637Z,20.72
2019-03-26T06:19:00.548Z,20.73
2019-03-26T06:21:03.939Z,20.73
2019-03-26T06:23:07.409Z,20.9
2019-03-26T06:25:09.497Z,20.82
2019-03-26T06:27:11.864Z,20.81
2019-03-26T06:29:13.894Z,20.76
2019-03-26T06:31:15.990Z,20.79
2019-03-26T06:33:18.151Z,21.07
2019-03-26T06:35:20.139Z,21.33
2019-03-26T06:37:22.172Z,21.14
2019-03-26T06:39:24.439Z,21.04
2019-03-26T06:41:26.501Z,20.91
2019-03-26T06:43:28.563Z,20.83
2019-03-26T06:45:30.725Z,20.85
2019-03-26T06:47:32.911Z,20.86
2019-03-26T06:49:35.060Z,20.87
2019-03-26T06:51:38.337Z,20.89
2019-03-26T06:53:42.558Z,20.98
2019-03-26T06:55:45.957Z,20.94
2019-03-26T06:57:49.271Z,20.87
2019-03-26T06:59:53.494Z,20.84
2019-03-26T07:01:56.743Z,20.92
2019-03-26T07:03:58.907Z,20.9
2019-03-26T07:06:01.276Z,21.04
2019-03-26T07:08:03.441Z,21.03
2019-03-26T07:10:08.867Z,21.08
2019-03-26T07:12:11.146Z,21.14
2019-03-26T07:14:13.211Z,21.31
2019-03-26T07:16:15.277Z,21.35
2019-03-26T07:18:17.747Z,21.35
2019-03-26T07:20:19.806Z,21.34
2019-03-26T07:22:22.076Z,21.36
2019-03-26T07:24:24.132Z,21.38
2019-03-26T07:26:26.299Z,21.4
2019-03-26T07:28:28.562Z,21.38
2019-03-26T07:30:30.727Z,21.39
2019-03-26T07:32:32.890Z,21.42
2019-03-26T07:34:35.161Z,21.47
2019-03-26T07:36:37.218Z,21.7
2019-03-26T07:38:39.281Z,21.89
2019-03-26T07:40:42.471Z,22.02
2019-03-26T07:42:45.758Z,22.09
2019-03-26T07:44:47.821Z,22.12
2019-03-26T07:46:49.882Z,22.25
2019-03-26T07:48:51.944Z,22.16
2019-03-26T07:50:54.108Z,22.16
2019-03-26T07:52:56.114Z,22.17
2019-03-26T07:54:58.337Z,22.3
2019-03-26T07:57:00.398Z,22.3
2019-03-26T07:59:03.526Z,22.19
2019-03-26T08:01:05.750Z,22.17
2019-03-26T08:03:07.912Z,22.22
2019-03-26T08:05:09.974Z,22.29
2019-03-26T08:07:12.046Z,22.37
2019-03-26T08:09:14.220Z,22.35
2019-03-26T08:11:16.472Z,22.12
2019-03-26T08:13:18.528Z,22.03
2019-03-26T08:15:22.536Z,21.95
2019-03-26T08:17:24.596Z,21.84
2019-03-26T08:19:26.767Z,21.83
2019-03-26T08:21:29.027Z,21.9
2019-03-26T08:23:31.090Z,21.89
2019-03-26T08:25:33.919Z,21.88
2019-03-26T08:27:36.426Z,21.75
2019-03-26T08:29:38.614Z,21.73
2019-03-26T08:31:40.871Z,21.73
2019-03-26T08:33:42.933Z,21.78
2019-03-26T08:35:45.199Z,21.75
2019-03-26T08:37:47.236Z,21.69
2019-03-26T08:39:49.322Z,21.64
2019-03-26T08:41:51.487Z,21.68
2019-03-26T08:43:53.785Z,21.68
2019-03-26T08:45:56.124Z,21.65
2019-03-26T08:47:58.184Z,21.67
2019-03-26T08:50:00.453Z,21.65
2019-03-26T08:52:02.514Z,21.75
2019-03-26T08:54:04.882Z,21.82
2019-03-26T08:56:06.943Z,21.97
2019-03-26T08:58:09.108Z,22.06
2019-03-26T09:00:11.437Z,22.08
2019-03-26T09:02:13.539Z,22.16
2019-03-26T09:04:15.599Z,22.21
2019-03-26T09:06:17.661Z,22.28
2019-03-26T09:08:25.041Z,22.24
2019-03-26T09:10:27.928Z,22.3
2019-03-26T09:12:30.092Z,22.12
2019-03-26T09:14:32.359Z,21.97
2019-03-26T09:16:34.529Z,21.92
2019-03-26T09:18:36.793Z,21.85
2019-03-26T09:20:38.850Z,21.81
2019-03-26T09:22:40.859Z,21.82
2019-03-26T09:24:42.975Z,21.83
2019-03-26T09:26:45.036Z,21.87
2019-03-26T09:28:47.920Z,21.84
2019-03-26T09:30:50.463Z,21.89
2019-03-26T09:32:57.876Z,21.86
2019-03-26T09:35:00.042Z,21.81
2019-03-26T09:37:02.320Z,21.79
2019-03-26T09:39:04.472Z,21.83
2019-03-26T09:41:06.533Z,21.79
2019-03-26T09:43:08.595Z,21.77
2019-03-26T09:45:10.657Z,21.77
2019-03-26T09:47:16.273Z,21.71
2019-03-26T09:49:18.672Z,21.69
2019-03-26T09:51:20.937Z,21.68
2019-03-26T09:53:24.400Z,21.95
2019-03-26T09:55:28.720Z,22.02
2019-03-26T09:57:30.916Z,22.13
2019-03-26T09:59:33.076Z,22.23
2019-03-26T10:01:36.431Z,22.28
2019-03-26T10:03:38.509Z,22.23
2019-03-26T10:05:40.900Z,22.29
2019-03-26T10:07:43.064Z,22.36
2019-03-26T10:09:45.329Z,22.31
2019-03-26T10:11:47.394Z,22.25
2019-03-26T10:13:49.467Z,22.38
2019-03-26T10:15:51.484Z,22.4
2019-03-26T10:17:53.579Z,22.32
2019-03-26T10:19:55.947Z,22.3
2019-03-26T10:21:59.547Z,22.34
2019-03-26T10:24:01.815Z,22.38
2019-03-26T10:26:03.977Z,22.34
2019-03-26T10:28:06.030Z,22.37
2019-03-26T10:30:08.205Z,22.4
2019-03-26T10:32:10.365Z,22.33
2019-03-26T10:34:12.428Z,22.33
2019-03-26T10:36:14.730Z,22.42
2019-03-26T10:38:16.959Z,22.41
2019-03-26T10:40:19.122Z,22.47
2019-03-26T10:42:21.185Z,22.46
2019-03-26T10:44:23.440Z,22.28
2019-03-26T10:46:25.718Z,22.41
2019-03-26T10:48:27.784Z,22.42
2019-03-26T10:50:33.119Z,22.58
2019-03-26T10:52:35.384Z,22.71
2019-03-26T10:54:38.526Z,22.89
2019-03-26T10:56:40.737Z,22.98
2019-03-26T10:58:43.002Z,23.11
2019-03-26T11:00:45.161Z,23.09
2019-03-26T11:02:47.229Z,23.04
2019-03-26T11:04:51.727Z,22.86
2019-03-26T11:06:55.171Z,22.64
2019-03-26T11:08:58.333Z,22.55
2019-03-26T11:11:01.640Z,22.45
2019-03-26T11:13:04.808Z,22.29
2019-03-26T11:15:07.022Z,22.21
2019-03-26T11:17:11.222Z,22.18
2019-03-26T11:19:14.567Z,22.13
2019-03-26T11:21:17.729Z,22.09
2019-03-26T11:23:21.573Z,22.07
2019-03-26T11:25:24.727Z,22.06
2019-03-26T11:27:27.945Z,22.02
2019-03-26T11:29:31.134Z,22.07
2019-03-26T11:31:34.319Z,22.09
2019-03-26T11:33:37.817Z,22.11
2019-03-26T11:35:39.979Z,22.17
2019-03-26T11:37:44.947Z,22.3
2019-03-26T11:39:48.292Z,22.37
2019-03-26T11:41:52.538Z,22.39
2019-03-26T11:43:55.701Z,22.36
2019-03-26T11:45:59.712Z,22.31
2019-03-26T11:48:03.306Z,22.3
2019-03-26T11:50:05.508Z,22.26
2019-03-26T11:52:09.482Z,22.27
2019-03-26T11:54:12.768Z,22.21
2019-03-26T11:56:15.239Z,22.15
2019-03-26T11:58:29.766Z,22.12
2019-03-26T12:00:34.312Z,22.08
2019-03-26T12:02:36.722Z,22.01
2019-03-26T12:04:39.015Z,21.94
2019-03-26T12:06:43.303Z,21.87
2019-03-26T12:08:47.572Z,21.81
2019-03-26T12:10:50.970Z,21.8
2019-03-26T12:12:54.365Z,21.79
2019-03-26T12:14:57.734Z,21.74
2019-03-26T12:17:01.128Z,21.74
2019-03-26T12:19:04.423Z,21.67
2019-03-26T12:21:06.604Z,21.59
2019-03-26T12:23:08.665Z,21.55
2019-03-26T12:25:12.570Z,21.52
2019-03-26T12:27:16.505Z,21.58
2019-03-26T12:29:18.742Z,21.63
2019-03-26T12:31:21.025Z,21.64
2019-03-26T12:33:23.172Z,21.69
2019-03-26T12:35:26.462Z,21.63
2019-03-26T12:37:28.627Z,21.68
2019-03-26T12:39:31.007Z,21.67
2019-03-26T12:41:33.262Z,21.68
2019-03-26T12:43:36.688Z,21.66
2019-03-26T12:45:38.717Z,21.67
2019-03-26T12:47:42.103Z,21.64
2019-03-26T12:49:45.473Z,21.67
2019-03-26T12:51:49.669Z,21.73
2019-03-26T12:53:52.888Z,21.75
2019-03-26T12:55:56.092Z,21.78
2019-03-26T12:57:59.254Z,21.9
2019-03-26T13:00:02.649Z,22.01
2019-03-26T13:02:06.019Z,21.98
2019-03-26T13:04:12.729Z,21.98
2019-03-26T13:06:19.333Z,22.01
2019-03-26T13:08:22.596Z,22.02
2019-03-26T13:10:26.774Z,22
2019-03-26T13:12:28.968Z,21.88
2019-03-26T13:14:31.132Z,21.83
2019-03-26T13:16:34.278Z,21.83
2019-03-26T13:18:36.283Z,21.76
2019-03-26T13:20:39.777Z,21.72
2019-03-26T13:22:42.965Z,21.67
2019-03-26T13:24:48.014Z,21.74
2019-03-26T13:26:50.263Z,21.75
2019-03-26T13:28:54.482Z,21.76
2019-03-26T13:30:56.536Z,21.74
2019-03-26T13:32:58.699Z,21.73
2019-03-26T13:35:00.791Z,21.78
2019-03-26T13:37:02.925Z,21.85
2019-03-26T13:39:05.089Z,21.96
2019-03-26T13:41:07.355Z,21.92
2019-03-26T13:43:09.552Z,21.98
2019-03-26T13:45:11.889Z,22.01
2019-03-26T13:47:14.258Z,22.04
2019-03-26T13:49:16.422Z,22.1
2019-03-26T13:51:18.584Z,22.17
2019-03-26T13:53:20.649Z,22.18
2019-03-26T13:55:23.029Z,22.17
2019-03-26T13:57:25.282Z,22.24
2019-03-26T13:59:27.449Z,22.37
2019-03-26T14:01:29.612Z,22.44
2019-03-26T14:03:31.776Z,22.39
2019-03-26T14:05:33.939Z,22.4
2019-03-26T14:07:37.024Z,22.38
2019-03-26T14:09:39.086Z,22.28
2019-03-26T14:11:42.579Z,22.18
2019-03-26T14:13:44.642Z,22.15
2019-03-26T14:15:46.750Z,22.17
2019-03-26T14:17:48.972Z,22.26
2019-03-26T14:19:51.087Z,22.18
2019-03-26T14:21:53.401Z,22.22
2019-03-26T14:23:55.606Z,22.22
2019-03-26T14:25:57.629Z,22.19
2019-03-26T14:27:59.690Z,22.26
2019-03-26T14:30:02.104Z,22.32
2019-03-26T14:32:05.978Z,22.37
2019-03-26T14:34:08.128Z,22.45
2019-03-26T14:36:10.189Z,22.45
2019-03-26T14:38:12.186Z,22.4
2019-03-26T14:40:14.517Z,22.4
2019-03-26T14:42:16.786Z,22.47
2019-03-26T14:44:19.067Z,22.39
2019-03-26T14:46:22.470Z,22.35
2019-03-26T14:48:25.017Z,22.29
2019-03-26T14:50:29.025Z,22.24
2019-03-26T14:52:36.725Z,22.19
2019-03-26T14:54:39.188Z,22.21
2019-03-26T14:56:41.260Z,21.99
2019-03-26T14:58:53.190Z,22.11
2019-03-26T15:01:00.825Z,22.11
2019-03-26T15:03:07.653Z,22.08
2019-03-26T15:05:22.018Z,21.93
2019-03-26T15:07:28.735Z,21.97
2019-03-26T15:09:30.895Z,22.09
2019-03-26T15:11:33.058Z,22.04
2019-03-26T15:13:35.148Z,22.03
2019-03-26T15:15:37.415Z,22.12
2019-03-26T15:17:40.869Z,21.93
2019-03-26T15:19:43.353Z,22.08
2019-03-26T15:21:45.415Z,22.08
2019-03-26T15:23:48.810Z,22.07
2019-03-26T15:25:51.177Z,22.15
2019-03-26T15:27:53.445Z,22.11
2019-03-26T15:29:56.246Z,22.28
2019-03-26T15:32:02.410Z,22.16
2019-03-26T15:34:05.884Z,22.18
2019-03-26T15:36:07.936Z,22.21
2019-03-26T15:38:10.287Z,22.26
2019-03-26T15:40:12.470Z,22.23
2019-03-26T15:42:15.452Z,22.27
2019-03-26T15:44:17.503Z,22.15
2019-03-26T15:46:19.580Z,22.16
2019-03-26T15:48:21.846Z,22.2
2019-03-26T15:50:23.987Z,22.21
2019-03-26T15:52:26.283Z,22.24
2019-03-26T15:54:28.445Z,22.25
2019-03-26T15:56:30.903Z,22.24
2019-03-26T15:58:33.608Z,22.29
2019-03-26T16:00:36.024Z,22.37
2019-03-26T16:02:38.307Z,22.16
2019-03-26T16:04:41.664Z,21.89
2019-03-26T16:06:43.657Z,21.75
2019-03-26T16:08:45.854Z,21.69
2019-03-26T16:10:50.398Z,21.61
2019-03-26T16:12:52.493Z,21.58
2019-03-26T16:14:56.733Z,21.51
2019-03-26T16:17:00.951Z,21.52
2019-03-26T16:19:04.150Z,21.53
2019-03-26T16:21:07.258Z,21.56
2019-03-26T16:23:12.309Z,21.51
2019-03-26T16:25:15.704Z,21.44
2019-03-26T16:27:18.923Z,21.44
2019-03-26T16:29:25.887Z,21.33
2019-03-26T16:31:31.264Z,21.36
2019-03-26T16:33:35.558Z,21.4
2019-03-26T16:35:40.790Z,21.36
2019-03-26T16:37:44.149Z,21.29
2019-03-26T16:39:49.398Z,21.31
2019-03-26T16:41:54.764Z,21.34
2019-03-26T16:43:59.304Z,21.33
2019-03-26T16:46:02.806Z,21.25
2019-03-26T16:48:07.857Z,21.2
2019-03-26T16:50:11.060Z,21.2
2019-03-26T16:52:15.313Z,21.06
2019-03-26T16:54:19.509Z,21.08
2019-03-26T16:56:23.703Z,21.05
2019-03-26T16:58:28.223Z,21.03
2019-03-26T17:00:32.443Z,21.06
2019-03-26T17:02:34.896Z,21.04
2019-03-26T17:04:39.209Z,20.98
2019-03-26T17:06:43.504Z,20.87
2019-03-26T17:08:47.773Z,20.89
2019-03-26T17:10:50.993Z,20.84
2019-03-26T17:12:55.295Z,20.85
2019-03-26T17:14:57.527Z,20.84
2019-03-26T17:16:59.736Z,20.8
2019-03-26T17:19:04.723Z,20.76
2019-03-26T17:21:08.944Z,20.76
2019-03-26T17:23:12.238Z,20.77
2019-03-26T17:25:16.435Z,20.79
2019-03-26T17:27:20.954Z,20.73
2019-03-26T17:29:24.157Z,20.8
2019-03-26T17:31:28.494Z,20.79
2019-03-26T17:33:32.814Z,20.63
2019-03-26T17:35:35.248Z,20.77
2019-03-26T17:37:39.505Z,20.72
2019-03-26T17:39:43.749Z,20.63
2019-03-26T17:41:48.043Z,20.68
2019-03-26T17:43:52.289Z,20.69
2019-03-26T17:45:55.634Z,20.7
2019-03-26T17:47:58.826Z,20.67
2019-03-26T17:50:02.324Z,20.58
2019-03-26T17:52:06.520Z,20.63
2019-03-26T17:54:09.803Z,20.58
2019-03-26T17:56:12.172Z,20.61
2019-03-26T17:58:14.655Z,20.65
2019-03-26T18:00:16.914Z,20.61
2019-03-26T18:02:19.085Z,20.7
2019-03-26T18:04:21.547Z,20.64
2019-03-26T18:06:24.027Z,20.64
2019-03-26T18:08:26.363Z,20.59
2019-03-26T18:10:28.653Z,20.61
2019-03-26T18:12:31.384Z,20.56
2019-03-26T18:14:33.808Z,20.53
2019-03-26T18:16:37.360Z,20.56
2019-03-26T18:18:40.768Z,20.53
2019-03-26T18:20:42.984Z,20.56
2019-03-26T18:22:45.118Z,20.91
2019-03-26T18:24:48.087Z,21.06
2019-03-26T18:26:50.274Z,21.14
2019-03-26T18:28:55.403Z,21.23
2019-03-26T18:30:57.981Z,21.3
2019-03-26T18:33:00.347Z,21.3
2019-03-26T18:35:02.823Z,21.29
2019-03-26T18:37:05.090Z,21.49
2019-03-26T18:39:07.354Z,21.59
2019-03-26T18:41:09.516Z,21.51
2019-03-26T18:43:11.693Z,21.56
2019-03-26T18:45:13.744Z,21.65
2019-03-26T18:47:17.164Z,21.64
2019-03-26T18:49:19.300Z,21.58
2019-03-26T18:51:21.475Z,21.69
2019-03-26T18:53:23.645Z,21.68
2019-03-26T18:55:26.968Z,21.72
2019-03-26T18:57:29.297Z,21.72
2019-03-26T18:59:31.350Z,21.76
2019-03-26T19:01:33.512Z,21.87
2019-03-26T19:03:35.574Z,21.85
2019-03-26T19:05:37.738Z,21.85
2019-03-26T19:07:41.186Z,21.92
2019-03-26T19:09:43.501Z,21.95
2019-03-26T19:11:46.661Z,21.86
2019-03-26T19:13:48.854Z,21.83
2019-03-26T19:15:51.016Z,21.91
2019-03-26T19:17:53.247Z,22.01
2019-03-26T19:19:58.235Z,21.7
2019-03-26T19:22:00.738Z,21.53
2019-03-26T19:24:04.240Z,21.46
2019-03-26T19:26:06.966Z,21.47
2019-03-26T19:28:09.038Z,21.46
2019-03-26T19:30:11.080Z,21.43
2019-03-26T19:32:13.246Z,21.42
2019-03-26T19:34:15.306Z,21.4
2019-03-26T19:36:17.470Z,21.37
2019-03-26T19:38:19.531Z,21.32
2019-03-26T19:40:21.593Z,21.27
2019-03-26T19:42:23.655Z,21.2
2019-03-26T19:44:25.717Z,21.29
2019-03-26T19:46:27.841Z,21.25
2019-03-26T19:48:30.053Z,21.3
2019-03-26T19:50:32.208Z,21.28
2019-03-26T19:52:34.577Z,21.24
2019-03-26T19:54:36.655Z,21.27
2019-03-26T19:56:40.341Z,21.26
2019-03-26T19:58:42.708Z,21.21
2019-03-26T20:00:44.978Z,21.26
2019-03-26T20:02:47.151Z,21.17
2019-03-26T20:04:49.405Z,21.17
2019-03-26T20:06:51.672Z,21.1
2019-03-26T20:08:53.838Z,21.06
2019-03-26T20:10:55.898Z,21.06
2019-03-26T20:12:57.963Z,21.04
2019-03-26T20:15:00.339Z,20.97
2019-03-26T20:17:02.596Z,21.03
2019-03-26T20:19:04.787Z,21
2019-03-26T20:21:06.926Z,20.94
2019-03-26T20:23:09.394Z,20.91
2019-03-26T20:25:11.456Z,20.93
2019-03-26T20:27:13.620Z,20.89
2019-03-26T20:29:15.989Z,20.89
2019-03-26T20:31:18.061Z,20.87
2019-03-26T20:33:20.257Z,20.95
2019-03-26T20:35:22.585Z,20.97
2019-03-26T20:37:25.997Z,20.99
2019-03-26T20:39:29.165Z,20.95
2019-03-26T20:41:31.432Z,20.96
2019-03-26T20:43:37.341Z,21.01
2019-03-26T20:45:39.753Z,21.11
2019-03-26T20:47:41.922Z,21.1
2019-03-26T20:49:43.983Z,21.09
2019-03-26T20:51:46.142Z,21.07
2019-03-26T20:53:48.614Z,21.1
2019-03-26T20:55:54.395Z,21.11
2019-03-26T20:57:57.037Z,21.15
2019-03-26T20:59:59.817Z,21.22
2019-03-26T21:02:01.884Z,21.34
2019-03-26T21:04:04.249Z,21.41
2019-03-26T21:06:06.526Z,21.61
2019-03-26T21:08:09.012Z,21.61
2019-03-26T21:10:11.352Z,21.64
2019-03-26T21:12:13.520Z,21.69
2019-03-26T21:14:15.556Z,21.65
2019-03-26T21:16:17.747Z,21.68
2019-03-26T21:18:20.112Z,21.78
2019-03-26T21:20:22.893Z,21.89
2019-03-26T21:22:24.964Z,21.96
2019-03-26T21:24:28.042Z,21.94
2019-03-26T21:26:30.309Z,21.91
2019-03-26T21:28:36.045Z,21.88
2019-03-26T21:30:38.621Z,22.06
2019-03-26T21:32:41.178Z,22.11
2019-03-26T21:34:43.970Z,22.11
2019-03-26T21:36:47.382Z,22
2019-03-26T21:38:57.773Z,22.15
2019-03-26T21:41:07.430Z,22.13
2019-03-26T21:43:09.952Z,22.14
2019-03-26T21:45:14.562Z,22.14
2019-03-26T21:47:19.036Z,22.13
2019-03-26T21:49:22.725Z,22.13
2019-03-26T21:51:25.649Z,22.23
2019-03-26T21:53:31.422Z,22.26
2019-03-26T21:55:33.715Z,22.26
2019-03-26T21:57:35.876Z,22.33
2019-03-26T21:59:38.185Z,22.57
2019-03-26T22:01:40.307Z,22.57
2019-03-26T22:03:42.559Z,22.57
2019-03-26T22:05:47.766Z,22.44
2019-03-26T22:07:51.059Z,22.49
2019-03-26T22:09:54.954Z,22.59
2019-03-26T22:11:59.819Z,22.37
2019-03-26T22:14:16.975Z,22.28
